createdAt,value
2018-05-04T00:00:10.075Z,13.67
2018-05-04T00:01:10.208Z,13.71
2018-05-04T00:02:10.339Z,13.67
2018-05-04T00:03:10.548Z,13.68
2018-05-04T00:04:10.670Z,13.63
2018-05-04T00:05:10.806Z,13.57
2018-05-04T00:06:10.940Z,13.54
2018-05-04T00:07:11.080Z,13.53
2018-05-04T00:08:11.218Z,13.58
2018-05-04T00:09:11.362Z,13.57
2018-05-04T00:10:11.494Z,13.54
2018-05-04T00:11:11.631Z,13.53
2018-05-04T00:12:11.763Z,13.53
2018-05-04T00:13:11.904Z,13.58
2018-05-04T00:14:12.040Z,13.45
2018-05-04T00:15:12.176Z,13.55
2018-05-04T00:16:12.313Z,13.46
2018-05-04T00:17:12.446Z,13.42
2018-05-04T00:18:12.582Z,13.47
2018-05-04T00:19:12.744Z,13.38
2018-05-04T00:20:12.879Z,13.40
2018-05-04T00:21:13.015Z,13.36
2018-05-04T00:22:13.183Z,13.23
2018-05-04T00:23:13.323Z,13.20
2018-05-04T00:24:13.459Z,13.27
2018-05-04T00:25:13.593Z,13.20
2018-05-04T00:26:13.790Z,13.19
2018-05-04T00:27:13.801Z,13.20
2018-05-04T00:28:13.937Z,13.20
2018-05-04T00:29:14.075Z,13.24
2018-05-04T00:30:14.207Z,13.14
2018-05-04T00:31:14.345Z,13.17
2018-05-04T00:32:14.479Z,13.26
2018-05-04T00:33:14.612Z,13.19
2018-05-04T00:34:14.749Z,13.06
2018-05-04T00:35:14.891Z,13.16
2018-05-04T00:36:15.027Z,13.08
2018-05-04T00:37:15.171Z,13.05
2018-05-04T00:38:15.309Z,13.02
2018-05-04T00:39:15.446Z,13.09
2018-05-04T00:40:15.578Z,13.02
2018-05-04T00:41:15.719Z,13.06
2018-05-04T00:42:15.855Z,12.91
2018-05-04T00:43:15.997Z,13.02
2018-05-04T00:44:16.129Z,12.91
2018-05-04T00:45:16.262Z,12.96
2018-05-04T00:46:16.392Z,12.88
2018-05-04T00:47:16.530Z,12.98
2018-05-04T00:48:16.670Z,12.95
2018-05-04T00:49:16.806Z,12.93
2018-05-04T00:50:16.940Z,12.88
2018-05-04T00:51:17.084Z,12.87
2018-05-04T00:52:17.222Z,12.83
2018-05-04T00:53:18.038Z,12.90
2018-05-04T00:54:17.442Z,12.88
2018-05-04T00:55:17.581Z,12.90
2018-05-04T00:56:17.718Z,12.93
2018-05-04T00:57:17.859Z,12.91
2018-05-04T00:58:17.996Z,12.90
2018-05-04T00:59:18.136Z,12.76
2018-05-04T01:00:18.270Z,12.79
2018-05-04T01:01:18.406Z,12.69
2018-05-04T01:02:18.541Z,12.69
2018-05-04T01:03:18.680Z,12.66
2018-05-04T01:04:18.815Z,12.68
2018-05-04T01:05:18.958Z,12.68
2018-05-04T01:06:19.094Z,12.59
2018-05-04T01:07:19.231Z,12.50
2018-05-04T01:08:19.374Z,12.58
2018-05-04T01:09:19.512Z,12.59
2018-05-04T01:10:19.649Z,12.55
2018-05-04T01:11:19.786Z,12.48
2018-05-04T01:12:19.919Z,12.47
2018-05-04T01:13:20.062Z,12.51
2018-05-04T01:14:20.192Z,12.50
2018-05-04T01:15:20.321Z,12.48
2018-05-04T01:16:20.458Z,12.43
2018-05-04T01:17:20.620Z,12.51
2018-05-04T01:18:20.756Z,12.48
2018-05-04T01:19:20.891Z,12.59
2018-05-04T01:20:21.042Z,12.48
2018-05-04T01:21:21.177Z,12.38
2018-05-04T01:22:21.323Z,12.47
2018-05-04T01:23:21.455Z,12.44
2018-05-04T01:24:21.591Z,12.47
2018-05-04T01:25:21.727Z,12.46
2018-05-04T01:26:21.857Z,12.43
2018-05-04T01:27:21.992Z,12.44
2018-05-04T01:28:22.127Z,12.38
2018-05-04T01:29:22.261Z,12.40
2018-05-04T01:30:22.407Z,12.38
2018-05-04T01:31:22.542Z,12.36
2018-05-04T01:32:22.680Z,12.36
2018-05-04T01:33:22.811Z,12.23
2018-05-04T01:34:22.964Z,12.38
2018-05-04T01:35:23.101Z,12.23
2018-05-04T01:36:23.234Z,12.26
2018-05-04T01:37:23.375Z,12.26
2018-05-04T01:38:23.508Z,12.25
2018-05-04T01:39:23.638Z,12.28
2018-05-04T01:40:23.793Z,12.22
2018-05-04T01:41:23.925Z,12.29
2018-05-04T01:42:24.060Z,12.21
2018-05-04T01:43:24.205Z,12.22
2018-05-04T01:44:24.337Z,12.22
2018-05-04T01:45:24.472Z,12.10
2018-05-04T01:46:24.604Z,12.25
2018-05-04T01:47:24.744Z,12.14
2018-05-04T01:48:24.878Z,12.07
2018-05-04T01:49:25.021Z,12.04
2018-05-04T01:50:25.159Z,12.17
2018-05-04T01:51:25.296Z,12.11
2018-05-04T01:52:25.423Z,12.08
2018-05-04T01:53:25.564Z,12.08
2018-05-04T01:54:25.700Z,12.13
2018-05-04T01:55:25.835Z,12.10
2018-05-04T01:56:25.970Z,12.15
2018-05-04T01:57:26.106Z,12.11
2018-05-04T01:58:26.247Z,12.08
2018-05-04T01:59:26.380Z,12.14
2018-05-04T02:00:26.522Z,12.07
2018-05-04T02:01:26.635Z,12.08
2018-05-04T02:02:26.798Z,12.05
2018-05-04T02:03:26.929Z,12.10
2018-05-04T02:04:27.060Z,12.08
2018-05-04T02:05:27.188Z,12.10
2018-05-04T02:06:27.337Z,11.96
2018-05-04T02:07:27.471Z,11.96
2018-05-04T02:08:27.614Z,11.93
2018-05-04T02:09:27.742Z,11.97
2018-05-04T02:10:27.879Z,12.03
2018-05-04T02:11:28.020Z,12.03
2018-05-04T02:12:28.160Z,11.96
2018-05-04T02:13:28.295Z,11.89
2018-05-04T02:14:28.434Z,11.96
2018-05-04T02:15:28.561Z,11.91
2018-05-04T02:16:28.705Z,11.97
2018-05-04T02:17:28.840Z,11.95
2018-05-04T02:18:28.973Z,11.87
2018-05-04T02:19:29.122Z,11.96
2018-05-04T02:20:29.263Z,11.84
2018-05-04T02:21:29.383Z,11.91
2018-05-04T02:22:29.519Z,11.88
2018-05-04T02:23:29.656Z,11.85
2018-05-04T02:24:29.794Z,11.85
2018-05-04T02:25:29.927Z,11.88
2018-05-04T02:26:30.062Z,11.82
2018-05-04T02:27:30.193Z,11.79
2018-05-04T02:28:30.335Z,11.82
2018-05-04T02:29:30.469Z,11.88
2018-05-04T02:30:30.608Z,11.88
2018-05-04T02:31:30.738Z,11.82
2018-05-04T02:32:30.885Z,11.85
2018-05-04T02:33:31.008Z,11.82
2018-05-04T02:34:31.156Z,11.84
2018-05-04T02:35:31.276Z,11.91
2018-05-04T02:36:31.430Z,11.80
2018-05-04T02:37:31.546Z,11.85
2018-05-04T02:38:31.686Z,11.88
2018-05-04T02:39:31.820Z,11.85
2018-05-04T02:40:31.960Z,11.85
2018-05-04T02:41:32.094Z,11.84
2018-05-04T02:42:32.232Z,11.93
2018-05-04T02:43:32.361Z,11.88
2018-05-04T02:44:32.498Z,12.00
2018-05-04T02:45:32.628Z,12.00
2018-05-04T02:46:32.768Z,11.97
2018-05-04T02:47:32.902Z,11.97
2018-05-04T02:48:33.035Z,11.89
2018-05-04T02:49:33.173Z,11.93
2018-05-04T02:50:33.345Z,11.99
2018-05-04T02:51:33.489Z,12.04
2018-05-04T02:52:33.622Z,11.87
2018-05-04T02:53:33.767Z,11.85
2018-05-04T02:54:33.896Z,11.87
2018-05-04T02:55:34.051Z,11.87
2018-05-04T02:56:34.158Z,11.89
2018-05-04T02:57:34.304Z,11.91
2018-05-04T02:58:34.433Z,11.82
2018-05-04T02:59:34.626Z,11.77
2018-05-04T03:00:34.653Z,11.89
2018-05-04T03:01:34.791Z,11.73
2018-05-04T03:02:34.929Z,11.71
2018-05-04T03:03:35.065Z,11.84
2018-05-04T03:04:35.204Z,11.71
2018-05-04T03:05:35.338Z,11.58
2018-05-04T03:06:35.475Z,11.59
2018-05-04T03:07:35.602Z,11.61
2018-05-04T03:08:35.742Z,11.56
2018-05-04T03:09:35.874Z,11.51
2018-05-04T03:10:36.008Z,11.52
2018-05-04T03:11:36.146Z,11.51
2018-05-04T03:12:36.281Z,11.51
2018-05-04T03:13:36.420Z,11.51
2018-05-04T03:14:36.557Z,11.56
2018-05-04T03:15:36.693Z,11.49
2018-05-04T03:16:36.830Z,11.66
2018-05-04T03:17:36.975Z,11.54
2018-05-04T03:18:37.112Z,11.64
2018-05-04T03:19:37.292Z,11.69
2018-05-04T03:20:37.429Z,11.69
2018-05-04T03:21:37.564Z,11.62
2018-05-04T03:22:37.698Z,11.70
2018-05-04T03:23:37.833Z,11.62
2018-05-04T03:24:37.966Z,11.52
2018-05-04T03:25:38.103Z,11.61
2018-05-04T03:26:38.238Z,11.67
2018-05-04T03:27:38.393Z,11.64
2018-05-04T03:28:39.051Z,11.62
2018-05-04T03:29:38.586Z,11.55
2018-05-04T03:30:38.725Z,11.51
2018-05-04T03:31:38.860Z,11.49
2018-05-04T03:32:38.994Z,11.56
2018-05-04T03:33:39.131Z,11.48
2018-05-04T03:34:39.270Z,11.49
2018-05-04T03:35:39.412Z,11.48
2018-05-04T03:36:39.548Z,11.46
2018-05-04T03:37:39.685Z,11.46
2018-05-04T03:38:39.823Z,11.49
2018-05-04T03:39:39.966Z,11.38
2018-05-04T03:40:40.099Z,11.41
2018-05-04T03:41:40.234Z,11.41
2018-05-04T03:42:40.369Z,11.41
2018-05-04T03:43:40.504Z,11.45
2018-05-04T03:44:40.648Z,11.48
2018-05-04T03:45:40.789Z,11.45
2018-05-04T03:46:40.920Z,11.45
2018-05-04T03:47:41.052Z,11.52
2018-05-04T03:48:41.204Z,11.54
2018-05-04T03:49:41.345Z,11.49
2018-05-04T03:50:41.484Z,11.55
2018-05-04T03:51:41.618Z,11.56
2018-05-04T03:52:41.753Z,11.54
2018-05-04T03:53:41.894Z,11.59
2018-05-04T03:54:42.040Z,11.54
2018-05-04T03:55:42.168Z,11.58
2018-05-04T03:56:42.300Z,11.59
2018-05-04T03:57:42.457Z,11.58
2018-05-04T03:58:42.590Z,11.52
2018-05-04T03:59:42.725Z,11.58
2018-05-04T04:00:42.865Z,11.51
2018-05-04T04:01:42.993Z,11.54
2018-05-04T04:02:43.130Z,11.61
2018-05-04T04:03:43.261Z,11.52
2018-05-04T04:04:43.391Z,11.52
2018-05-04T04:05:43.525Z,11.55
2018-05-04T04:06:43.662Z,11.54
2018-05-04T04:07:43.807Z,11.38
2018-05-04T04:08:43.949Z,11.40
2018-05-04T04:09:44.084Z,11.40
2018-05-04T04:10:44.218Z,11.43
2018-05-04T04:11:44.354Z,11.37
2018-05-04T04:12:44.497Z,11.41
2018-05-04T04:13:44.629Z,11.43
2018-05-04T04:14:44.763Z,11.41
2018-05-04T04:15:44.896Z,11.40
2018-05-04T04:16:45.046Z,11.40
2018-05-04T04:17:45.167Z,11.33
2018-05-04T04:18:45.302Z,11.34
2018-05-04T04:19:46.043Z,11.37
2018-05-04T04:20:45.590Z,11.43
2018-05-04T04:21:45.727Z,11.36
2018-05-04T04:22:45.861Z,11.45
2018-05-04T04:23:45.995Z,11.46
2018-05-04T04:24:46.129Z,11.45
2018-05-04T04:25:46.264Z,11.49
2018-05-04T04:26:46.395Z,11.51
2018-05-04T04:27:46.545Z,11.56
2018-05-04T04:28:46.666Z,11.55
2018-05-04T04:29:46.812Z,11.64
2018-05-04T04:30:46.951Z,11.56
2018-05-04T04:31:47.105Z,11.46
2018-05-04T04:32:47.217Z,11.59
2018-05-04T04:33:47.355Z,11.64
2018-05-04T04:34:47.488Z,11.59
2018-05-04T04:35:47.624Z,11.59
2018-05-04T04:36:47.761Z,11.61
2018-05-04T04:37:47.903Z,11.56
2018-05-04T04:38:48.086Z,11.46
2018-05-04T04:39:48.165Z,11.58
2018-05-04T04:40:48.297Z,11.58
2018-05-04T04:41:48.436Z,11.61
2018-05-04T04:42:48.575Z,11.66
2018-05-04T04:43:48.709Z,11.71
2018-05-04T04:44:48.845Z,11.71
2018-05-04T04:45:48.981Z,11.74
2018-05-04T04:46:49.126Z,11.73
2018-05-04T04:47:49.276Z,11.73
2018-05-04T04:48:49.403Z,11.80
2018-05-04T04:49:49.545Z,11.77
2018-05-04T04:50:49.681Z,11.73
2018-05-04T04:51:49.816Z,11.85
2018-05-04T04:52:49.956Z,11.77
2018-05-04T04:53:50.085Z,11.85
2018-05-04T04:54:50.230Z,11.79
2018-05-04T04:55:50.369Z,11.91
2018-05-04T04:56:50.508Z,11.95
2018-05-04T04:57:50.647Z,11.95
2018-05-04T04:58:50.781Z,11.97
2018-05-04T04:59:50.918Z,12.03
2018-05-04T05:00:51.071Z,12.00
2018-05-04T05:01:51.210Z,11.91
2018-05-04T05:02:51.317Z,11.89
2018-05-04T05:03:51.459Z,11.96
2018-05-04T05:04:51.592Z,11.87
2018-05-04T05:05:51.756Z,11.97
2018-05-04T05:06:51.865Z,11.99
2018-05-04T05:07:51.994Z,11.97
2018-05-04T05:08:52.138Z,11.93
2018-05-04T05:09:52.273Z,12.00
2018-05-04T05:10:52.416Z,11.99
2018-05-04T05:11:52.558Z,12.04
2018-05-04T05:12:52.692Z,12.00
2018-05-04T05:13:52.897Z,12.03
2018-05-04T05:14:52.956Z,12.03
2018-05-04T05:15:53.096Z,11.95
2018-05-04T05:16:53.237Z,12.11
2018-05-04T05:17:53.378Z,12.08
2018-05-04T05:18:53.514Z,12.17
2018-05-04T05:19:53.649Z,12.15
2018-05-04T05:20:53.788Z,12.11
2018-05-04T05:21:54.027Z,12.15
2018-05-04T05:22:54.079Z,12.22
2018-05-04T05:23:54.204Z,12.14
2018-05-04T05:24:54.339Z,12.18
2018-05-04T05:25:54.476Z,12.23
2018-05-04T05:26:54.604Z,12.18
2018-05-04T05:27:54.746Z,12.26
2018-05-04T05:28:54.876Z,12.26
2018-05-04T05:29:55.015Z,12.35
2018-05-04T05:30:55.156Z,12.33
2018-05-04T05:31:55.286Z,12.38
2018-05-04T05:32:55.430Z,12.41
2018-05-04T05:33:55.556Z,12.46
2018-05-04T05:34:55.693Z,12.36
2018-05-04T05:35:55.825Z,12.30
2018-05-04T05:36:55.963Z,12.36
2018-05-04T05:37:56.093Z,12.32
2018-05-04T05:38:56.248Z,12.25
2018-05-04T05:39:56.375Z,12.26
2018-05-04T05:40:56.511Z,12.38
2018-05-04T05:41:56.651Z,12.26
2018-05-04T05:42:56.784Z,12.41
2018-05-04T05:43:56.919Z,12.40
2018-05-04T05:44:57.052Z,12.23
2018-05-04T05:45:57.197Z,12.28
2018-05-04T05:46:57.335Z,12.40
2018-05-04T05:47:57.475Z,12.40
2018-05-04T05:48:57.612Z,12.47
2018-05-04T05:49:57.745Z,12.36
2018-05-04T05:50:57.883Z,12.58
2018-05-04T05:51:58.108Z,12.54
2018-05-04T05:52:58.152Z,12.55
2018-05-04T05:53:58.287Z,12.48
2018-05-04T05:54:58.425Z,12.51
2018-05-04T05:55:58.554Z,12.55
2018-05-04T05:56:58.738Z,12.62
2018-05-04T05:57:58.879Z,12.65
2018-05-04T05:58:59.009Z,12.73
2018-05-04T06:00:00.061Z,12.68
2018-05-04T06:00:59.354Z,12.69
2018-05-04T06:01:59.490Z,12.68
2018-05-04T06:02:59.626Z,12.66
2018-05-04T06:03:59.779Z,12.73
2018-05-04T06:04:59.909Z,12.72
2018-05-04T06:06:00.042Z,12.71
2018-05-04T06:07:00.188Z,12.73
2018-05-04T06:08:00.318Z,12.73
2018-05-04T06:09:00.467Z,12.80
2018-05-04T06:10:00.604Z,12.83
2018-05-04T06:11:00.743Z,12.91
2018-05-04T06:12:00.871Z,12.91
2018-05-04T06:13:01.011Z,12.91
2018-05-04T06:14:01.154Z,12.84
2018-05-04T06:15:01.301Z,12.90
2018-05-04T06:16:01.501Z,12.98
2018-05-04T06:17:01.610Z,12.96
2018-05-04T06:18:01.737Z,13.06
2018-05-04T06:19:01.826Z,12.96
2018-05-04T06:20:01.946Z,13.11
2018-05-04T06:21:02.080Z,13.14
2018-05-04T06:22:02.229Z,13.20
2018-05-04T06:23:02.409Z,13.20
2018-05-04T06:24:02.467Z,13.19
2018-05-04T06:25:02.621Z,13.24
2018-05-04T06:26:02.739Z,13.27
2018-05-04T06:27:02.864Z,13.24
2018-05-04T06:28:03.001Z,13.17
2018-05-04T06:29:03.168Z,13.26
2018-05-04T06:30:03.300Z,13.24
2018-05-04T06:31:03.434Z,13.36
2018-05-04T06:32:03.572Z,13.32
2018-05-04T06:33:03.705Z,13.45
2018-05-04T06:34:03.842Z,13.38
2018-05-04T06:35:03.979Z,13.53
2018-05-04T06:36:04.122Z,13.40
2018-05-04T06:37:04.257Z,13.53
2018-05-04T06:38:04.396Z,13.51
2018-05-04T06:39:04.537Z,13.46
2018-05-04T06:40:04.678Z,13.51
2018-05-04T06:41:04.820Z,13.65
2018-05-04T06:42:04.953Z,13.58
2018-05-04T06:43:05.084Z,13.64
2018-05-04T06:44:05.220Z,13.64
2018-05-04T06:45:05.361Z,13.67
2018-05-04T06:46:05.495Z,13.67
2018-05-04T06:47:05.635Z,13.67
2018-05-04T06:48:05.774Z,13.76
2018-05-04T06:49:05.914Z,13.73
2018-05-04T06:50:06.057Z,13.83
2018-05-04T06:51:06.189Z,13.86
2018-05-04T06:52:06.328Z,13.78
2018-05-04T06:53:06.467Z,13.72
2018-05-04T06:54:06.606Z,13.78
2018-05-04T06:55:06.744Z,13.76
2018-05-04T06:56:06.881Z,13.88
2018-05-04T06:57:07.021Z,13.94
2018-05-04T06:58:07.167Z,14.04
2018-05-04T06:59:07.306Z,13.82
2018-05-04T07:00:07.442Z,13.90
2018-05-04T07:01:07.584Z,13.97
2018-05-04T07:02:07.726Z,13.96
2018-05-04T07:03:07.875Z,14.03
2018-05-04T07:04:08.009Z,14.03
2018-05-04T07:05:08.145Z,14.05
2018-05-04T07:06:08.286Z,14.13
2018-05-04T07:07:08.424Z,14.15
2018-05-04T07:08:08.558Z,13.96
2018-05-04T07:09:08.686Z,14.15
2018-05-04T07:10:08.843Z,14.19
2018-05-04T07:11:08.984Z,14.16
2018-05-04T07:12:09.128Z,14.11
2018-05-04T07:13:09.277Z,14.22
2018-05-04T07:14:09.413Z,14.19
2018-05-04T07:15:09.615Z,14.19
2018-05-04T07:16:09.696Z,14.12
2018-05-04T07:17:09.834Z,14.31
2018-05-04T07:18:09.968Z,14.26
2018-05-04T07:19:10.104Z,14.37
2018-05-04T07:20:10.243Z,14.31
2018-05-04T07:21:10.380Z,14.37
2018-05-04T07:22:10.642Z,14.41
2018-05-04T07:23:10.658Z,14.40
2018-05-04T07:24:10.793Z,14.44
2018-05-04T07:25:10.934Z,14.34
2018-05-04T07:26:11.063Z,14.44
2018-05-04T07:27:11.210Z,14.52
2018-05-04T07:28:11.341Z,14.52
2018-05-04T07:29:11.476Z,14.51
2018-05-04T07:30:11.618Z,14.44
2018-05-04T07:31:11.765Z,14.46
2018-05-04T07:32:11.902Z,14.45
2018-05-04T07:33:12.040Z,14.49
2018-05-04T07:34:12.176Z,14.51
2018-05-04T07:35:12.338Z,14.55
2018-05-04T07:36:12.469Z,14.44
2018-05-04T07:37:12.609Z,14.44
2018-05-04T07:38:12.742Z,14.56
2018-05-04T07:39:12.885Z,14.53
2018-05-04T07:40:13.020Z,14.52
2018-05-04T07:41:13.157Z,14.52
2018-05-04T07:42:13.292Z,14.63
2018-05-04T07:43:13.457Z,14.67
2018-05-04T07:44:13.569Z,14.67
2018-05-04T07:45:13.714Z,14.73
2018-05-04T07:46:13.851Z,14.64
2018-05-04T07:47:13.987Z,14.71
2018-05-04T07:48:14.130Z,14.74
2018-05-04T07:49:14.269Z,14.70
2018-05-04T07:50:14.408Z,14.73
2018-05-04T07:51:14.550Z,14.69
2018-05-04T07:52:14.688Z,14.58
2018-05-04T07:53:14.826Z,14.74
2018-05-04T07:54:14.976Z,14.77
2018-05-04T07:55:15.164Z,14.79
2018-05-04T07:56:15.244Z,14.86
2018-05-04T07:57:15.384Z,14.82
2018-05-04T07:58:15.519Z,14.78
2018-05-04T07:59:15.655Z,14.86
2018-05-04T08:00:15.793Z,14.89
2018-05-04T08:01:15.930Z,14.93
2018-05-04T08:02:16.068Z,14.95
2018-05-04T08:03:16.210Z,14.83
2018-05-04T08:04:16.344Z,14.95
2018-05-04T08:05:16.481Z,14.93
2018-05-04T08:06:16.616Z,14.85
2018-05-04T08:07:16.752Z,14.86
2018-05-04T08:08:16.892Z,14.99
2018-05-04T08:09:17.031Z,14.95
2018-05-04T08:10:17.169Z,14.97
2018-05-04T08:11:17.302Z,14.99
2018-05-04T08:12:17.443Z,14.96
2018-05-04T08:13:17.589Z,15.01
2018-05-04T08:14:17.729Z,15.05
2018-05-04T08:15:17.867Z,15.07
2018-05-04T08:16:18.008Z,15.10
2018-05-04T08:17:18.143Z,15.12
2018-05-04T08:18:18.284Z,15.15
2018-05-04T08:19:18.421Z,15.27
2018-05-04T08:20:18.555Z,15.29
2018-05-04T08:21:18.690Z,15.40
2018-05-04T08:22:18.827Z,15.44
2018-05-04T08:23:18.977Z,15.40
2018-05-04T08:24:19.117Z,15.38
2018-05-04T08:25:19.249Z,15.27
2018-05-04T08:26:19.397Z,15.26
2018-05-04T08:27:19.564Z,15.36
2018-05-04T08:28:19.668Z,15.38
2018-05-04T08:29:19.805Z,15.36
2018-05-04T08:30:19.942Z,15.43
2018-05-04T08:31:20.075Z,15.43
2018-05-04T08:32:20.219Z,15.50
2018-05-04T08:33:20.355Z,15.47
2018-05-04T08:34:20.490Z,15.44
2018-05-04T08:35:20.655Z,15.52
2018-05-04T08:36:20.770Z,15.56
2018-05-04T08:37:20.908Z,15.52
2018-05-04T08:38:21.044Z,15.58
2018-05-04T08:39:21.179Z,15.59
2018-05-04T08:40:21.321Z,15.48
2018-05-04T08:41:21.457Z,15.47
2018-05-04T08:42:21.595Z,15.48
2018-05-04T08:43:21.731Z,15.50
2018-05-04T08:44:21.874Z,15.65
2018-05-04T08:45:22.013Z,15.66
2018-05-04T08:46:22.153Z,15.60
2018-05-04T08:47:22.289Z,15.66
2018-05-04T08:48:22.483Z,15.68
2018-05-04T08:49:22.566Z,15.76
2018-05-04T08:50:22.713Z,15.76
2018-05-04T08:51:22.850Z,15.76
2018-05-04T08:52:22.985Z,15.84
2018-05-04T08:53:23.125Z,15.87
2018-05-04T08:54:23.271Z,16.02
2018-05-04T08:55:23.405Z,16.02
2018-05-04T08:56:23.540Z,15.99
2018-05-04T08:57:23.712Z,16.00
2018-05-04T08:58:23.821Z,16.03
2018-05-04T08:59:23.950Z,15.95
2018-05-04T09:00:24.088Z,15.99
2018-05-04T09:01:24.223Z,15.98
2018-05-04T09:02:24.365Z,16.06
2018-05-04T09:03:24.501Z,16.02
2018-05-04T09:04:24.698Z,15.91
2018-05-04T09:05:24.737Z,16.09
2018-05-04T09:06:24.868Z,16.10
2018-05-04T09:07:24.998Z,15.99
2018-05-04T09:08:25.144Z,16.16
2018-05-04T09:09:25.281Z,16.22
2018-05-04T09:10:25.421Z,16.13
2018-05-04T09:11:25.555Z,16.16
2018-05-04T09:12:25.690Z,16.28
2018-05-04T09:13:25.832Z,16.21
2018-05-04T09:14:25.976Z,16.26
2018-05-04T09:15:26.111Z,16.34
2018-05-04T09:16:26.255Z,16.29
2018-05-04T09:17:26.399Z,16.28
2018-05-04T09:18:26.531Z,16.21
2018-05-04T09:19:26.682Z,16.16
2018-05-04T09:20:26.825Z,16.39
2018-05-04T09:21:26.956Z,16.24
2018-05-04T09:22:27.095Z,16.37
2018-05-04T09:23:27.236Z,16.33
2018-05-04T09:24:27.369Z,16.29
2018-05-04T09:25:27.512Z,16.26
2018-05-04T09:26:27.656Z,16.28
2018-05-04T09:27:27.796Z,16.22
2018-05-04T09:28:27.933Z,16.39
2018-05-04T09:29:28.072Z,16.33
2018-05-04T09:30:28.208Z,16.28
2018-05-04T09:31:28.343Z,16.36
2018-05-04T09:32:28.485Z,16.26
2018-05-04T09:33:28.629Z,16.28
2018-05-04T09:34:28.768Z,16.39
2018-05-04T09:35:28.908Z,16.32
2018-05-04T09:36:29.084Z,16.34
2018-05-04T09:37:29.222Z,16.21
2018-05-04T09:38:29.365Z,16.17
2018-05-04T09:39:29.504Z,16.32
2018-05-04T09:40:29.647Z,16.32
2018-05-04T09:41:29.783Z,16.46
2018-05-04T09:42:29.917Z,16.43
2018-05-04T09:43:30.138Z,16.62
2018-05-04T09:44:30.200Z,16.55
2018-05-04T09:45:30.352Z,16.59
2018-05-04T09:46:30.508Z,16.77
2018-05-04T09:47:30.633Z,16.79
2018-05-04T09:48:30.785Z,16.74
2018-05-04T09:49:30.921Z,16.84
2018-05-04T09:50:31.062Z,16.87
2018-05-04T09:51:31.194Z,16.79
2018-05-04T09:52:31.352Z,16.83
2018-05-04T09:53:31.493Z,16.82
2018-05-04T09:54:31.634Z,16.84
2018-05-04T09:55:31.776Z,16.92
2018-05-04T09:56:31.922Z,16.80
2018-05-04T09:57:32.058Z,16.94
2018-05-04T09:58:32.194Z,16.97
2018-05-04T09:59:32.333Z,16.87
2018-05-04T10:00:32.468Z,16.88
2018-05-04T10:01:32.606Z,16.79
2018-05-04T10:02:32.745Z,16.87
2018-05-04T10:03:32.909Z,16.88
2018-05-04T10:04:33.027Z,16.88
2018-05-04T10:05:33.171Z,16.87
2018-05-04T10:06:33.309Z,16.84
2018-05-04T10:07:33.444Z,16.84
2018-05-04T10:08:33.580Z,16.88
2018-05-04T10:09:33.719Z,16.77
2018-05-04T10:10:33.859Z,16.88
2018-05-04T10:11:33.993Z,16.92
2018-05-04T10:12:34.128Z,16.95
2018-05-04T10:13:34.270Z,16.87
2018-05-04T10:14:34.416Z,16.95
2018-05-04T10:15:34.553Z,16.94
2018-05-04T10:16:34.695Z,16.97
2018-05-04T10:17:34.837Z,17.13
2018-05-04T10:18:34.978Z,17.13
2018-05-04T10:19:35.120Z,17.01
2018-05-04T10:20:35.257Z,17.10
2018-05-04T10:21:35.398Z,17.01
2018-05-04T10:22:35.536Z,16.92
2018-05-04T10:23:35.661Z,17.01
2018-05-04T10:24:35.799Z,17.04
2018-05-04T10:25:35.943Z,17.04
2018-05-04T10:26:36.114Z,17.02
2018-05-04T10:27:36.219Z,17.01
2018-05-04T10:28:36.360Z,17.06
2018-05-04T10:29:36.504Z,17.10
2018-05-04T10:30:36.638Z,17.14
2018-05-04T10:31:36.777Z,17.30
2018-05-04T10:32:36.925Z,17.25
2018-05-04T10:33:37.056Z,17.35
2018-05-04T10:34:37.194Z,17.37
2018-05-04T10:35:37.337Z,17.38
2018-05-04T10:36:37.484Z,17.38
2018-05-04T10:37:37.637Z,17.38
2018-05-04T10:38:37.850Z,17.34
2018-05-04T10:39:37.918Z,17.41
2018-05-04T10:40:38.054Z,17.49
2018-05-04T10:41:38.196Z,17.56
2018-05-04T10:42:38.330Z,17.56
2018-05-04T10:43:38.468Z,17.59
2018-05-04T10:44:38.610Z,17.59
2018-05-04T10:45:38.746Z,17.65
2018-05-04T10:46:38.894Z,17.62
2018-05-04T10:47:39.038Z,17.54
2018-05-04T10:48:39.173Z,17.56
2018-05-04T10:49:39.311Z,17.59
2018-05-04T10:50:39.456Z,17.63
2018-05-04T10:51:39.612Z,17.65
2018-05-04T10:52:39.751Z,17.65
2018-05-04T10:53:39.886Z,17.87
2018-05-04T10:54:40.031Z,17.86
2018-05-04T10:55:40.169Z,18.03
2018-05-04T10:56:40.309Z,17.97
2018-05-04T10:57:40.456Z,18.05
2018-05-04T10:58:40.599Z,18.13
2018-05-04T10:59:40.739Z,18.12
2018-05-04T11:00:40.871Z,18.23
2018-05-04T11:01:41.005Z,18.23
2018-05-04T11:02:41.142Z,18.28
2018-05-04T11:03:41.287Z,18.27
2018-05-04T11:04:41.431Z,18.27
2018-05-04T11:05:41.570Z,18.38
2018-05-04T11:06:41.716Z,18.31
2018-05-04T11:07:41.854Z,18.27
2018-05-04T11:08:41.991Z,18.30
2018-05-04T11:09:42.137Z,18.24
2018-05-04T11:10:42.280Z,18.21
2018-05-04T11:11:42.414Z,18.13
2018-05-04T11:12:42.556Z,18.09
2018-05-04T11:13:42.701Z,18.17
2018-05-04T11:14:42.834Z,18.18
2018-05-04T11:15:42.976Z,18.23
2018-05-04T11:16:43.120Z,18.30
2018-05-04T11:17:43.256Z,18.30
2018-05-04T11:18:43.395Z,18.27
2018-05-04T11:19:43.535Z,18.38
2018-05-04T11:20:43.681Z,18.36
2018-05-04T11:21:43.821Z,18.27
2018-05-04T11:22:43.967Z,18.38
2018-05-04T11:23:44.103Z,18.33
2018-05-04T11:24:44.245Z,18.41
2018-05-04T11:25:44.386Z,18.34
2018-05-04T11:26:44.524Z,18.38
2018-05-04T11:27:44.666Z,18.46
2018-05-04T11:28:44.806Z,18.54
2018-05-04T11:29:44.949Z,18.64
2018-05-04T11:30:45.093Z,18.61
2018-05-04T11:31:45.239Z,18.71
2018-05-04T11:32:45.371Z,18.67
2018-05-04T11:33:45.508Z,18.82
2018-05-04T11:34:45.654Z,18.89
2018-05-04T11:35:45.798Z,18.94
2018-05-04T11:36:45.939Z,19.01
2018-05-04T11:37:46.075Z,19.16
2018-05-04T11:38:46.277Z,19.19
2018-05-04T11:39:46.362Z,19.20
2018-05-04T11:40:46.507Z,19.31
2018-05-04T11:41:46.647Z,19.35
2018-05-04T11:42:46.800Z,19.42
2018-05-04T11:43:46.931Z,19.41
2018-05-04T11:44:47.075Z,19.34
2018-05-04T11:45:47.210Z,19.45
2018-05-04T11:46:47.417Z,19.42
2018-05-04T11:47:47.490Z,19.57
2018-05-04T11:48:47.643Z,19.71
2018-05-04T11:49:47.766Z,19.67
2018-05-04T11:50:47.904Z,19.64
2018-05-04T11:51:48.041Z,19.67
2018-05-04T11:52:48.196Z,19.67
2018-05-04T11:53:48.326Z,19.67
2018-05-04T11:54:48.480Z,19.70
2018-05-04T11:55:48.623Z,19.75
2018-05-04T11:56:48.767Z,19.68
2018-05-04T11:57:48.914Z,19.75
2018-05-04T11:58:49.049Z,19.92
2018-05-04T11:59:49.191Z,19.94
2018-05-04T12:00:49.328Z,19.92
2018-05-04T12:01:49.537Z,19.90
2018-05-04T12:02:49.614Z,19.86
2018-05-04T12:03:49.758Z,19.96
2018-05-04T12:04:49.891Z,19.97
2018-05-04T12:05:50.035Z,20.12
2018-05-04T12:06:50.189Z,19.96
2018-05-04T12:07:50.327Z,20.12
2018-05-04T12:08:50.470Z,20.12
2018-05-04T12:09:50.618Z,19.99
2018-05-04T12:10:50.805Z,20.08
2018-05-04T12:11:50.903Z,20.09
2018-05-04T12:12:51.051Z,20.09
2018-05-04T12:13:51.196Z,20.00
2018-05-04T12:14:51.335Z,20.19
2018-05-04T12:15:51.468Z,20.22
2018-05-04T12:16:51.624Z,20.29
2018-05-04T12:17:51.753Z,20.18
2018-05-04T12:18:51.890Z,20.22
2018-05-04T12:19:52.031Z,20.25
2018-05-04T12:20:52.180Z,20.42
2018-05-04T12:21:52.330Z,20.36
2018-05-04T12:22:52.482Z,20.14
2018-05-04T12:23:52.615Z,20.05
2018-05-04T12:24:52.760Z,19.97
2018-05-04T12:25:52.914Z,19.87
2018-05-04T12:26:53.053Z,20.04
2018-05-04T12:27:54.104Z,19.99
2018-05-04T12:28:53.401Z,19.87
2018-05-04T12:29:53.544Z,19.92
2018-05-04T12:30:53.690Z,19.81
2018-05-04T12:31:53.837Z,19.81
2018-05-04T12:32:53.967Z,19.87
2018-05-04T12:33:54.109Z,19.90
2018-05-04T12:34:54.260Z,19.99
2018-05-04T12:35:54.401Z,19.92
2018-05-04T12:36:54.548Z,20.04
2018-05-04T12:37:54.691Z,20.00
2018-05-04T12:38:54.852Z,19.97
2018-05-04T12:39:55.022Z,20.04
2018-05-04T12:40:55.165Z,20.07
2018-05-04T12:41:55.309Z,20.12
2018-05-04T12:42:55.467Z,20.05
2018-05-04T12:43:55.610Z,20.04
2018-05-04T12:44:55.752Z,20.15
2018-05-04T12:45:55.896Z,20.23
2018-05-04T12:46:56.071Z,20.19
2018-05-04T12:47:56.175Z,20.33
2018-05-04T12:48:56.321Z,20.41
2018-05-04T12:49:56.474Z,20.42
2018-05-04T12:50:56.609Z,20.46
2018-05-04T12:51:56.765Z,20.49
2018-05-04T12:52:56.911Z,20.60
2018-05-04T12:53:57.054Z,20.64